Cairnryan, United Kingdom
Current Conditions -  °F | °C
As of 9:20 AM on Monday 24 Nov 2014 (Local Time) from EGPK Reporting Station
Few Clouds Few Clouds  
Wind Chill: 45°   Ceiling: Unl
Heat Index: 45°   Visibility: 6mi
Dew Point: 41°   Wind: 3mph
Humidity: 87%   Direction: 180°S
Pressure: 30.21"   Gusts: NA
Location:  54.97°N, 5.03°W
Report Text: EGPK 240920Z 18003KT 9999 FEW022 07/05 Q1023
Loading
Personal Weather Stations






























Interactive Weather Map New forecast layout! Learn more

10-Day Weather Forecast

Advertisements
Track Severe Weather on mobile